This is the latest recevied weather packets stored in our database for station/object KJ4UBX-11. If no packets are shown the sender has not sent any weather packets the latest 1 day(s).
| Time | Temp. | Humidity | Pressure | Rain* | Wind** | Luminosity | Snow |
|---|---|---|---|---|---|---|---|
| 1778086354 | 17.22° C | 70% | 1006.4 hPa | - | - | - | - |
| 1778084608 | 19.44° C | 62% | 1006.9 hPa | - | - | - | - |
| 1778084026 | 20° C | 60% | 1007.1 hPa | - | - | - | - |
| 1778079364 | 21.11° C | 57% | 1007.4 hPa | - | - | - | - |
| 1778078781 | 20.56° C | 58% | 1007.2 hPa | - | - | - | - |
| 1778077617 | 22.78° C | 53% | 1007 hPa | - | - | - | - |
| 1778074694 | 19.44° C | 66% | 1007.7 hPa | - | - | - | - |
| 1778072361 | 19.44° C | 63% | 1007.5 hPa | - | - | - | - |
| 1778071195 | 20.56° C | 61% | 1007.5 hPa | - | - | - | - |
| 1778066525 | 17.78° C | 69% | 1008 hPa | - | - | - | - |
| 1778063606 | 15.56° C | 79% | 1007.9 hPa | - | - | - | - |
| 1778063022 | 15.56° C | 78% | 1007.8 hPa | - | - | - | - |
| 1778061270 | 15° C | 81% | 1007.9 hPa | - | - | - | - |
| 1778060686 | 15° C | 82% | 1007.7 hPa | - | - | - | - |
| 1778060104 | 15° C | 82% | 1007.7 hPa | - | - | - | - |
| 1778059521 | 15° C | 81% | 1007.7 hPa | - | - | - | - |
| 1778057772 | 15.56° C | 79% | 1007.6 hPa | - | - | - | - |
| 1778057190 | 15.56° C | 77% | 1007.5 hPa | - | - | - | - |
| 1778056606 | 15.56° C | 77% | 1007.5 hPa | - | - | - | - |
| 1778055441 | 15.56° C | 76% | 1007.3 hPa | - | - | - | - |
| 1778054858 | 15.56° C | 75% | 1007.3 hPa | - | - | - | - |
| 1778054275 | 15.56° C | 75% | 1007.3 hPa | - | - | - | - |
| 1778053691 | 15.56° C | 74% | 1007.3 hPa | - | - | - | - |
| 1778052524 | 15.56° C | 74% | 1007.2 hPa | - | - | - | - |
| 1778051944 | 16.11° C | 73% | 1007.2 hPa | - | - | - | - |
* Rain since midnight (hover to see other rain measurements)
** Current wind speed in m/s (hover to see current wind gust speed)